Time;durP1;ratioP1;P1;durP2;ratioP2;P2;SDS_P1;SDS_P2;PMS_P1;PMS_P2;Temp;Humidity;BMP_temperature;BMP_pressure;BME280_temperature;BME280_humidity;BME280_pressure;Samples;Min_cycle;Max_cycle;Signal;HPM_P1;HPM_P2
2023/05/11 00:01:58;;;;;;;2.80;1.50;;;;;;;;;;7369033;19;19998;-75
2023/05/11 00:04:23;;;;;;;3.15;1.60;;;;;;;;;;7392043;19;20002;-76
2023/05/11 00:06:48;;;;;;;2.58;1.50;;;;;;;;;;7366816;19;20014;-76
2023/05/11 00:09:14;;;;;;;2.55;1.65;;;;;;;;;;7372584;19;20014;-77
2023/05/11 00:11:39;;;;;;;1.77;1.38;;;;;;;;;;7372312;19;20002;-77
2023/05/11 00:14:04;;;;;;;2.08;1.52;;;;;;;;;;7370637;19;20002;-76
2023/05/11 00:16:30;;;;;;;1.67;1.40;;;;;;;;;;7392857;19;20361;-75
2023/05/11 00:18:55;;;;;;;3.63;1.38;;;;;;;;;;7370026;19;20105;-75
2023/05/11 00:21:21;;;;;;;2.47;1.50;;;;;;;;;;7369443;19;20010;-75
2023/05/11 00:23:47;;;;;;;3.85;1.60;;;;;;;;;;7371672;19;20050;-76
2023/05/11 00:26:12;;;;;;;2.13;1.70;;;;;;;;;;7370660;19;20364;-76
2023/05/11 00:28:38;;;;;;;3.13;1.50;;;;;;;;;;7390610;19;20730;-76
2023/05/11 00:31:03;;;;;;;2.40;1.60;;;;;;;;;;7370502;19;20022;-77
2023/05/11 00:33:28;;;;;;;3.42;1.45;;;;;;;;;;7369708;19;20015;-76
2023/05/11 00:35:54;;;;;;;2.45;1.67;;;;;;;;;;7369301;19;20077;-76
2023/05/11 00:38:19;;;;;;;3.10;1.50;;;;;;;;;;7368884;19;20480;-76
2023/05/11 00:40:45;;;;;;;3.20;1.50;;;;;;;;;;7391845;19;20007;-76
2023/05/11 00:43:10;;;;;;;2.97;1.48;;;;;;;;;;7370105;19;20345;-76
2023/05/11 00:45:36;;;;;;;3.95;1.50;;;;;;;;;;7372213;19;20010;-77
2023/05/11 00:48:02;;;;;;;2.42;1.52;;;;;;;;;;7368098;19;20041;-75
2023/05/11 00:50:27;;;;;;;2.53;1.73;;;;;;;;;;7369569;19;20074;-75
2023/05/11 00:52:54;;;;;;;2.20;1.52;;;;;;;;;;7369376;19;20015;-75
2023/05/11 00:55:20;;;;;;;2.83;1.70;;;;;;;;;;7391270;19;20485;-76
2023/05/11 00:57:45;;;;;;;3.78;1.60;;;;;;;;;;7367094;19;20006;-76
2023/05/11 01:00:12;;;;;;;2.72;1.60;;;;;;;;;;7369960;19;20010;-75
2023/05/11 01:02:38;;;;;;;3.17;1.70;;;;;;;;;;7368856;19;20009;-76
2023/05/11 01:05:04;;;;;;;3.65;1.50;;;;;;;;;;7369549;19;20006;-76
2023/05/11 01:07:48;;;;;;;2.03;1.60;;;;;;;;;;7389628;19;20009;-76
2023/05/11 01:10:28;;;;;;;2.88;1.60;;;;;;;;;;7369015;19;20414;-75
2023/05/11 01:13:12;;;;;;;6.57;1.80;;;;;;;;;;7367875;19;20006;-76
2023/05/11 01:15:55;;;;;;;3.53;1.55;;;;;;;;;;7368655;19;20006;-76
2023/05/11 01:18:29;;;;;;;1.85;1.65;;;;;;;;;;7367857;19;20502;-76
2023/05/11 01:21:00;;;;;;;2.90;1.60;;;;;;;;;;7369060;19;20010;-76
2023/05/11 01:23:40;;;;;;;1.95;1.45;;;;;;;;;;7370087;19;20082;-77
2023/05/11 01:26:43;;;;;;;4.88;1.80;;;;;;;;;;7369111;19;20006;-76
2023/05/11 01:29:40;;;;;;;2.17;1.40;;;;;;;;;;7369246;19;20030;-76
2023/05/11 01:32:13;;;;;;;3.25;1.60;;;;;;;;;;7377413;19;20563;-76
2023/05/11 01:34:39;;;;;;;3.22;1.65;;;;;;;;;;7399862;19;20010;-76
2023/05/11 01:37:17;;;;;;;5.18;1.70;;;;;;;;;;7378118;19;20002;-75
2023/05/11 01:39:51;;;;;;;2.65;1.67;;;;;;;;;;7378382;19;20007;-75
2023/05/11 01:42:19;;;;;;;7.43;2.47;;;;;;;;;;7376899;19;20365;-75
2023/05/11 01:44:49;;;;;;;3.63;1.73;;;;;;;;;;7388914;19;20026;-75
2023/05/11 01:47:15;;;;;;;1.83;1.40;;;;;;;;;;7386246;19;20007;-75
2023/05/11 01:49:43;;;;;;;3.92;1.75;;;;;;;;;;7399105;19;20481;-75
2023/05/11 01:52:10;;;;;;;4.03;1.52;;;;;;;;;;7376652;19;20010;-76
2023/05/11 01:54:37;;;;;;;4.25;1.92;;;;;;;;;;7375011;19;19998;-76
2023/05/11 01:57:04;;;;;;;2.15;1.60;;;;;;;;;;7373659;19;20002;-75
2023/05/11 01:59:31;;;;;;;2.75;1.70;;;;;;;;;;7378608;19;20435;-77
2023/05/11 02:01:57;;;;;;;5.25;1.80;;;;;;;;;;7377318;19;19997;-74
2023/05/11 02:04:24;;;;;;;4.80;1.67;;;;;;;;;;7398592;19;20007;-76
2023/05/11 02:06:52;;;;;;;5.22;1.70;;;;;;;;;;7375217;19;20006;-76
2023/05/11 02:09:18;;;;;;;3.35;1.75;;;;;;;;;;7375781;19;20007;-76
2023/05/11 02:11:47;;;;;;;1.60;1.50;;;;;;;;;;7374961;19;20007;-76
2023/05/11 02:14:14;;;;;;;2.42;1.50;;;;;;;;;;7374963;19;20353;-76
2023/05/11 02:16:40;;;;;;;7.15;2.00;;;;;;;;;;7396628;19;19999;-76
2023/05/11 02:19:07;;;;;;;3.15;1.90;;;;;;;;;;7376220;19;20048;-76
2023/05/11 02:21:33;;;;;;;2.90;1.75;;;;;;;;;;7376864;19;20743;-76
2023/05/11 02:24:05;;;;;;;2.00;1.40;;;;;;;;;;7377897;19;20399;-76
2023/05/11 02:26:31;;;;;;;3.10;1.88;;;;;;;;;;7384424;19;20017;-77
2023/05/11 02:28:56;;;;;;;2.55;1.75;;;;;;;;;;7376455;19;20006;-75
2023/05/11 02:31:28;;;;;;;2.85;1.80;;;;;;;;;;7397235;19;20003;-75
2023/05/11 02:33:58;;;;;;;2.05;1.52;;;;;;;;;;7372870;19;20010;-75
2023/05/11 02:36:28;;;;;;;2.13;1.60;;;;;;;;;;7373482;19;20246;-75
2023/05/11 02:39:01;;;;;;;3.08;1.75;;;;;;;;;;7374603;19;20409;-76
2023/05/11 02:41:28;;;;;;;3.08;1.90;;;;;;;;;;7374780;19;20086;-75
2023/05/11 02:43:56;;;;;;;4.25;2.38;;;;;;;;;;7374845;19;20017;-75
2023/05/11 02:46:26;;;;;;;3.47;1.98;;;;;;;;;;7395557;19;20005;-75
2023/05/11 02:48:59;;;;;;;6.88;2.13;;;;;;;;;;7373548;19;20006;-75
2023/05/11 02:51:30;;;;;;;3.95;1.70;;;;;;;;;;7373447;19;20117;-75
2023/05/11 02:53:57;;;;;;;2.38;1.67;;;;;;;;;;7373770;19;20802;-75
2023/05/11 02:56:24;;;;;;;2.40;1.70;;;;;;;;;;7373070;19;20114;-75
2023/05/11 02:58:49;;;;;;;4.22;1.90;;;;;;;;;;7373960;19;20002;-75
2023/05/11 03:01:16;;;;;;;4.65;1.75;;;;;;;;;;7394808;19;19995;-75
2023/05/11 03:03:41;;;;;;;2.95;1.95;;;;;;;;;;7373523;19;20002;-75
2023/05/11 03:06:06;;;;;;;2.92;1.77;;;;;;;;;;7373368;19;20043;-75
2023/05/11 03:08:33;;;;;;;2.72;1.85;;;;;;;;;;7371957;19;20006;-77
2023/05/11 03:10:59;;;;;;;4.30;1.90;;;;;;;;;;7373023;19;20081;-76
2023/05/11 03:13:25;;;;;;;2.55;1.88;;;;;;;;;;7393513;19;20002;-75
2023/05/11 03:15:51;;;;;;;3.53;2.00;;;;;;;;;;7372093;19;20129;-75
2023/05/11 03:18:18;;;;;;;4.13;1.95;;;;;;;;;;7372844;19;20074;-75
2023/05/11 03:20:45;;;;;;;3.35;1.75;;;;;;;;;;7372495;19;20019;-75
2023/05/11 03:23:12;;;;;;;3.63;2.10;;;;;;;;;;7379609;19;20010;-76
2023/05/11 03:25:40;;;;;;;2.53;1.65;;;;;;;;;;7409756;19;20285;-77
2023/05/11 03:28:07;;;;;;;3.83;1.90;;;;;;;;;;7372431;19;20027;-77
2023/05/11 03:30:33;;;;;;;5.65;1.90;;;;;;;;;;7374195;19;20022;-75
2023/05/11 03:32:58;;;;;;;2.88;1.73;;;;;;;;;;7373536;19;20014;-75
2023/05/11 03:35:26;;;;;;;2.13;1.80;;;;;;;;;;7375637;19;20014;-76
2023/05/11 03:37:53;;;;;;;2.42;1.70;;;;;;;;;;7372579;19;19994;-76
2023/05/11 03:40:20;;;;;;;4.13;2.15;;;;;;;;;;7396309;19;20012;-75
2023/05/11 03:42:46;;;;;;;3.40;2.00;;;;;;;;;;7374709;19;20468;-76
2023/05/11 03:45:15;;;;;;;2.67;1.90;;;;;;;;;;7382751;19;20006;-75
2023/05/11 03:47:42;;;;;;;3.00;1.70;;;;;;;;;;7386485;19;20060;-75
2023/05/11 03:50:08;;;;;;;5.60;2.17;;;;;;;;;;7388697;19;19995;-76
2023/05/11 03:52:34;;;;;;;3.72;1.80;;;;;;;;;;7392657;19;20006;-75
2023/05/11 03:55:00;;;;;;;3.58;1.88;;;;;;;;;;7369628;19;20017;-76
2023/05/11 03:57:26;;;;;;;3.67;2.03;;;;;;;;;;7369809;19;20006;-75
2023/05/11 03:59:51;;;;;;;3.28;1.70;;;;;;;;;;7370462;19;20078;-76
2023/05/11 04:02:16;;;;;;;4.00;1.67;;;;;;;;;;7369620;19;20014;-76
2023/05/11 04:04:42;;;;;;;3.30;1.92;;;;;;;;;;7392361;19;20014;-75
2023/05/11 04:07:07;;;;;;;3.28;1.95;;;;;;;;;;7369886;19;20334;-76
2023/05/11 04:09:32;;;;;;;3.65;2.00;;;;;;;;;;7372011;19;20074;-75
2023/05/11 04:11:58;;;;;;;5.25;2.20;;;;;;;;;;7372907;19;20106;-75
2023/05/11 04:14:23;;;;;;;8.30;1.90;;;;;;;;;;7370595;19;20021;-76
2023/05/11 04:16:49;;;;;;;2.88;1.77;;;;;;;;;;7371249;19;20003;-76
2023/05/11 04:19:15;;;;;;;3.47;2.05;;;;;;;;;;7396261;19;20003;-75
2023/05/11 04:21:41;;;;;;;4.07;2.00;;;;;;;;;;7377329;19;20014;-76
2023/05/11 04:24:06;;;;;;;3.40;2.03;;;;;;;;;;7377264;19;20018;-76
2023/05/11 04:26:31;;;;;;;3.55;2.00;;;;;;;;;;7372637;19;20018;-76
2023/05/11 04:28:57;;;;;;;3.70;2.10;;;;;;;;;;7371405;19;20007;-77
2023/05/11 04:31:22;;;;;;;5.15;1.90;;;;;;;;;;7390604;19;20006;-75
2023/05/11 04:33:48;;;;;;;3.42;2.08;;;;;;;;;;7369862;19;20018;-75
2023/05/11 04:36:13;;;;;;;6.97;2.17;;;;;;;;;;7370171;19;20031;-75
2023/05/11 04:38:38;;;;;;;5.65;2.50;;;;;;;;;;7370600;19;20131;-75
2023/05/11 04:41:05;;;;;;;3.42;1.98;;;;;;;;;;7370702;19;20014;-76
2023/05/11 04:43:30;;;;;;;2.80;1.90;;;;;;;;;;7392612;19;20504;-76
2023/05/11 04:45:56;;;;;;;3.80;2.08;;;;;;;;;;7370934;19;20040;-76
2023/05/11 04:48:21;;;;;;;4.40;2.17;;;;;;;;;;7369277;19;20011;-75
2023/05/11 04:50:46;;;;;;;3.97;2.40;;;;;;;;;;7369174;19;20031;-76
2023/05/11 04:53:12;;;;;;;2.53;1.90;;;;;;;;;;7368317;19;20014;-76
2023/05/11 04:55:37;;;;;;;4.13;2.05;;;;;;;;;;7391617;19;20436;-76
2023/05/11 04:58:02;;;;;;;3.03;2.03;;;;;;;;;;7366475;19;20357;-76
2023/05/11 05:00:28;;;;;;;4.50;2.30;;;;;;;;;;7371066;19;20002;-76
2023/05/11 05:02:53;;;;;;;5.70;2.10;;;;;;;;;;7369882;19;20006;-76
2023/05/11 05:05:18;;;;;;;2.97;2.00;;;;;;;;;;7369362;19;20010;-75
2023/05/11 05:07:44;;;;;;;2.88;1.73;;;;;;;;;;7395968;19;20031;-74
2023/05/11 05:10:11;;;;;;;3.63;2.22;;;;;;;;;;7374685;19;20493;-76
2023/05/11 05:12:37;;;;;;;3.42;1.92;;;;;;;;;;7376124;19;20010;-75
2023/05/11 05:15:03;;;;;;;2.88;1.92;;;;;;;;;;7374959;19;20439;-76
2023/05/11 05:17:28;;;;;;;4.68;2.13;;;;;;;;;;7374395;19;20094;-75
2023/05/11 05:19:54;;;;;;;4.57;2.53;;;;;;;;;;7376257;19;20421;-74
2023/05/11 05:22:20;;;;;;;3.75;2.05;;;;;;;;;;7397925;19;20006;-77
2023/05/11 05:24:45;;;;;;;5.82;2.33;;;;;;;;;;7375477;19;20045;-76
2023/05/11 05:27:13;;;;;;;6.18;2.55;;;;;;;;;;7377375;19;20011;-77
2023/05/11 05:29:38;;;;;;;4.22;2.35;;;;;;;;;;7377929;19;20052;-77
2023/05/11 05:32:04;;;;;;;6.18;2.47;;;;;;;;;;7378025;19;20010;-76
2023/05/11 05:34:29;;;;;;;4.40;2.35;;;;;;;;;;7397067;19;20006;-76
2023/05/11 05:36:54;;;;;;;5.05;2.50;;;;;;;;;;7374989;19;20010;-76
2023/05/11 05:39:20;;;;;;;4.38;2.40;;;;;;;;;;7374373;19;20461;-77
2023/05/11 05:41:45;;;;;;;4.18;2.50;;;;;;;;;;7379579;19;20021;-76
2023/05/11 05:44:10;;;;;;;4.57;2.42;;;;;;;;;;7383656;19;20014;-77
2023/05/11 05:46:36;;;;;;;6.80;2.63;;;;;;;;;;7401385;19;19999;-77
2023/05/11 05:49:01;;;;;;;5.80;2.67;;;;;;;;;;7382066;19;20012;-77
2023/05/11 05:51:27;;;;;;;5.05;2.55;;;;;;;;;;7383081;19;20010;-77
2023/05/11 05:53:52;;;;;;;4.75;2.63;;;;;;;;;;7378232;19;20010;-77
2023/05/11 05:56:18;;;;;;;6.13;3.33;;;;;;;;;;7377187;19;20025;-76
2023/05/11 05:58:43;;;;;;;6.07;2.67;;;;;;;;;;7398357;19;20010;-76
2023/05/11 06:01:08;;;;;;;5.75;2.90;;;;;;;;;;7378370;19;19995;-77
2023/05/11 06:03:34;;;;;;;5.50;2.78;;;;;;;;;;7380917;19;20006;-76
2023/05/11 06:06:01;;;;;;;5.78;2.97;;;;;;;;;;7380223;19;20473;-77
2023/05/11 06:08:26;;;;;;;7.65;2.75;;;;;;;;;;7379593;19;20006;-77
2023/05/11 06:10:52;;;;;;;5.43;3.00;;;;;;;;;;7377827;19;20006;-78
2023/05/11 06:13:18;;;;;;;6.55;3.30;;;;;;;;;;7397081;19;20006;-77
2023/05/11 06:15:43;;;;;;;6.53;3.30;;;;;;;;;;7377047;19;20014;-76
2023/05/11 06:18:08;;;;;;;6.25;2.92;;;;;;;;;;7372575;19;20024;-76
2023/05/11 06:20:34;;;;;;;6.18;3.00;;;;;;;;;;7375353;19;20002;-77
2023/05/11 06:22:59;;;;;;;5.63;3.20;;;;;;;;;;7375901;19;20010;-76
2023/05/11 06:25:26;;;;;;;5.25;2.83;;;;;;;;;;7397423;19;19999;-77
2023/05/11 06:27:51;;;;;;;7.80;2.60;;;;;;;;;;7371943;19;20006;-77
2023/05/11 06:30:17;;;;;;;9.05;2.70;;;;;;;;;;7392152;19;20354;-76
2023/05/11 06:32:42;;;;;;;6.07;2.80;;;;;;;;;;7374134;19;20002;-76
2023/05/11 06:35:08;;;;;;;8.20;2.97;;;;;;;;;;7375064;19;20477;-77
2023/05/11 06:37:34;;;;;;;6.75;3.30;;;;;;;;;;7394553;19;19998;-77
2023/05/11 06:39:59;;;;;;;5.32;3.10;;;;;;;;;;7374759;19;20808;-77
2023/05/11 06:42:25;;;;;;;5.22;2.97;;;;;;;;;;7375441;19;20054;-76
2023/05/11 06:44:50;;;;;;;6.38;3.10;;;;;;;;;;7377108;19;20762;-76
2023/05/11 06:47:15;;;;;;;4.43;2.55;;;;;;;;;;7376476;19;20029;-76
2023/05/11 06:49:41;;;;;;;5.53;2.80;;;;;;;;;;7399313;19;20013;-77
2023/05/11 06:52:07;;;;;;;5.68;2.90;;;;;;;;;;7377631;19;20004;-76
2023/05/11 06:54:33;;;;;;;4.72;2.60;;;;;;;;;;7373599;19;20021;-77
2023/05/11 06:56:58;;;;;;;4.00;2.67;;;;;;;;;;7373190;19;20495;-77
2023/05/11 06:59:24;;;;;;;6.80;2.60;;;;;;;;;;7377194;19;20523;-78
2023/05/11 07:01:49;;;;;;;4.22;2.60;;;;;;;;;;7377982;19;20011;-78
2023/05/11 07:04:15;;;;;;;5.72;2.42;;;;;;;;;;7401244;19;20005;-77
2023/05/11 07:06:40;;;;;;;4.65;2.53;;;;;;;;;;7378932;19;20026;-77
2023/05/11 07:09:05;;;;;;;3.97;2.38;;;;;;;;;;7378527;19;20003;-76
2023/05/11 07:11:31;;;;;;;4.65;2.60;;;;;;;;;;7375887;19;20014;-76
2023/05/11 07:13:56;;;;;;;3.20;2.05;;;;;;;;;;7373933;19;20006;-76
2023/05/11 07:16:22;;;;;;;4.00;2.30;;;;;;;;;;7396264;19;20007;-76
2023/05/11 07:18:47;;;;;;;4.60;2.25;;;;;;;;;;7378927;19;20011;-77
2023/05/11 07:21:13;;;;;;;5.03;2.47;;;;;;;;;;7376975;19;20020;-76
2023/05/11 07:23:38;;;;;;;3.85;2.20;;;;;;;;;;7382073;19;20449;-77
2023/05/11 07:26:07;;;;;;;2.97;2.20;;;;;;;;;;7396238;19;20098;-76
2023/05/11 07:28:36;;;;;;;6.53;2.42;;;;;;;;;;7411944;19;20006;-77
2023/05/11 07:31:02;;;;;;;4.85;2.53;;;;;;;;;;7388236;19;20039;-77
2023/05/11 07:33:27;;;;;;;3.35;2.38;;;;;;;;;;7378288;19;20015;-77
2023/05/11 07:35:52;;;;;;;3.95;2.20;;;;;;;;;;7374547;19;20404;-77
2023/05/11 07:38:18;;;;;;;2.67;1.88;;;;;;;;;;7371207;19;20480;-77
2023/05/11 07:40:43;;;;;;;4.10;2.42;;;;;;;;;;7401958;19;20007;-77
2023/05/11 07:43:08;;;;;;;6.40;2.55;;;;;;;;;;7387928;19;20081;-77
2023/05/11 07:45:34;;;;;;;4.35;2.60;;;;;;;;;;7391018;19;20071;-76
2023/05/11 07:47:59;;;;;;;4.72;2.72;;;;;;;;;;7386734;19;20080;-77
2023/05/11 07:50:24;;;;;;;4.93;2.40;;;;;;;;;;7373341;19;20373;-76
2023/05/11 07:52:50;;;;;;;4.57;2.60;;;;;;;;;;7373262;19;20624;-77
2023/05/11 07:55:15;;;;;;;4.45;2.50;;;;;;;;;;7392299;19;20006;-77
2023/05/11 07:57:40;;;;;;;4.43;2.60;;;;;;;;;;7369114;19;20014;-77
2023/05/11 08:00:06;;;;;;;4.18;2.50;;;;;;;;;;7372933;19;20005;-77
2023/05/11 08:02:32;;;;;;;5.70;3.00;;;;;;;;;;7372594;19;20377;-73
2023/05/11 08:04:57;;;;;;;5.20;2.72;;;;;;;;;;7371169;19;20002;-73
2023/05/11 08:07:23;;;;;;;6.45;2.75;;;;;;;;;;7391572;19;20014;-73
2023/05/11 08:09:49;;;;;;;8.18;2.70;;;;;;;;;;7370687;19;20020;-73
2023/05/11 08:12:14;;;;;;;4.97;2.60;;;;;;;;;;7371634;19;20006;-73
2023/05/11 08:14:41;;;;;;;5.60;2.63;;;;;;;;;;7370457;19;20010;-73
2023/05/11 08:17:07;;;;;;;5.15;3.10;;;;;;;;;;7370261;19;19995;-73
2023/05/11 08:19:32;;;;;;;5.88;2.53;;;;;;;;;;7393180;19;20645;-73
2023/05/11 08:21:59;;;;;;;8.57;2.67;;;;;;;;;;7370708;19;20006;-73
2023/05/11 08:24:24;;;;;;;7.38;3.10;;;;;;;;;;7370958;19;20074;-73
2023/05/11 08:26:50;;;;;;;4.70;2.78;;;;;;;;;;7370408;19;20007;-73
2023/05/11 08:29:15;;;;;;;4.80;2.83;;;;;;;;;;7369674;19;20080;-73
2023/05/11 08:31:40;;;;;;;8.50;2.60;;;;;;;;;;7392969;19;19998;-73
2023/05/11 08:34:07;;;;;;;7.10;3.38;;;;;;;;;;7372488;19;20015;-73
2023/05/11 08:36:34;;;;;;;6.22;3.00;;;;;;;;;;7375754;19;20484;-73
2023/05/11 08:38:59;;;;;;;4.53;2.75;;;;;;;;;;7372611;19;20015;-73
2023/05/11 08:41:25;;;;;;;9.05;3.15;;;;;;;;;;7369145;19;20387;-73
2023/05/11 08:43:51;;;;;;;6.82;3.00;;;;;;;;;;7368704;19;20022;-73
2023/05/11 08:46:25;;;;;;;4.82;3.20;;;;;;;;;;7391465;19;20007;-73
2023/05/11 08:48:51;;;;;;;5.35;2.92;;;;;;;;;;7369107;19;20740;-73
2023/05/11 08:51:17;;;;;;;4.40;2.80;;;;;;;;;;7369000;19;20003;-73
2023/05/11 08:53:42;;;;;;;7.13;3.15;;;;;;;;;;7372142;19;20765;-73
2023/05/11 08:56:09;;;;;;;7.18;3.20;;;;;;;;;;7375204;19;20560;-73
2023/05/11 08:58:36;;;;;;;5.05;3.05;;;;;;;;;;7398078;19;20006;-73
2023/05/11 09:01:04;;;;;;;8.18;3.00;;;;;;;;;;7372053;19;20007;-73
2023/05/11 09:03:30;;;;;;;10.40;3.17;;;;;;;;;;7371356;19;20014;-73
2023/05/11 09:05:57;;;;;;;6.10;2.80;;;;;;;;;;7370671;19;20010;-73
2023/05/11 09:08:25;;;;;;;5.57;2.80;;;;;;;;;;7366525;19;20024;-72
2023/05/11 09:10:51;;;;;;;7.10;3.30;;;;;;;;;;7367990;19;20006;-74
2023/05/11 09:13:16;;;;;;;7.38;3.28;;;;;;;;;;7389650;19;20003;-73
2023/05/11 09:15:42;;;;;;;6.40;2.85;;;;;;;;;;7367965;19;20012;-73
2023/05/11 09:18:07;;;;;;;6.13;3.28;;;;;;;;;;7367543;19;20016;-73
2023/05/11 09:20:33;;;;;;;4.90;2.80;;;;;;;;;;7368549;19;20043;-73
2023/05/11 09:22:59;;;;;;;5.55;3.15;;;;;;;;;;7367059;19;20002;-73
2023/05/11 09:25:26;;;;;;;7.15;3.42;;;;;;;;;;7389917;19;20018;-73
2023/05/11 09:27:51;;;;;;;10.07;3.28;;;;;;;;;;7365185;19;20007;-73
2023/05/11 09:30:20;;;;;;;4.63;3.00;;;;;;;;;;7368208;19;20109;-73
2023/05/11 09:32:59;;;;;;;6.80;3.13;;;;;;;;;;7368296;19;20400;-73
2023/05/11 09:35:32;;;;;;;5.30;3.40;;;;;;;;;;7369110;19;20492;-73
2023/05/11 09:38:06;;;;;;;7.07;3.22;;;;;;;;;;7366984;19;20014;-73
2023/05/11 09:40:34;;;;;;;9.38;3.28;;;;;;;;;;7389410;19;20344;-73
2023/05/11 09:43:01;;;;;;;5.60;2.67;;;;;;;;;;7367922;19;20014;-72
2023/05/11 09:45:38;;;;;;;6.15;3.03;;;;;;;;;;7369104;19;20760;-73
2023/05/11 09:48:06;;;;;;;3.85;2.55;;;;;;;;;;7366877;19;20006;-73
2023/05/11 09:50:35;;;;;;;5.63;2.90;;;;;;;;;;7369256;19;20480;-72
2023/05/11 09:53:01;;;;;;;6.05;3.47;;;;;;;;;;7369822;19;20035;-73
2023/05/11 09:55:26;;;;;;;6.72;3.50;;;;;;;;;;7396469;19;20003;-73
2023/05/11 09:57:54;;;;;;;5.57;3.20;;;;;;;;;;7372844;19;20018;-73
2023/05/11 10:00:20;;;;;;;8.38;3.17;;;;;;;;;;7375136;19;20425;-73
2023/05/11 10:02:57;;;;;;;5.82;3.22;;;;;;;;;;7382416;19;20006;-73
2023/05/11 10:05:22;;;;;;;5.18;3.00;;;;;;;;;;7378533;19;20033;-73
2023/05/11 10:07:57;;;;;;;5.13;2.90;;;;;;;;;;7375923;19;20504;-74
2023/05/11 10:10:24;;;;;;;7.10;2.90;;;;;;;;;;7393290;19;20491;-73
2023/05/11 10:12:50;;;;;;;4.72;3.00;;;;;;;;;;7370527;19;20036;-73
2023/05/11 10:15:20;;;;;;;7.70;3.20;;;;;;;;;;7371800;19;20503;-73
2023/05/11 10:17:46;;;;;;;5.40;3.15;;;;;;;;;;7370400;19;20035;-73
2023/05/11 10:20:11;;;;;;;6.22;3.40;;;;;;;;;;7366906;19;20014;-73
2023/05/11 10:22:37;;;;;;;5.90;3.78;;;;;;;;;;7393038;19;20013;-73
2023/05/11 10:25:05;;;;;;;6.55;3.10;;;;;;;;;;7371182;19;20010;-73
2023/05/11 10:27:31;;;;;;;7.00;3.70;;;;;;;;;;7371303;19;20011;-73
2023/05/11 10:29:57;;;;;;;6.10;3.72;;;;;;;;;;7377322;19;20002;-73
2023/05/11 10:32:23;;;;;;;4.80;3.35;;;;;;;;;;7378341;19;20015;-73
2023/05/11 10:34:51;;;;;;;6.97;3.60;;;;;;;;;;7375703;19;20102;-73
2023/05/11 10:37:17;;;;;;;7.25;3.50;;;;;;;;;;7394006;19;20036;-73
2023/05/11 10:39:44;;;;;;;8.23;3.58;;;;;;;;;;7373793;19;20011;-73
2023/05/11 10:42:15;;;;;;;5.53;3.53;;;;;;;;;;7374558;19;20390;-73
2023/05/11 10:44:55;;;;;;;6.68;3.60;;;;;;;;;;7374746;19;20352;-75
2023/05/11 10:47:33;;;;;;;5.28;3.33;;;;;;;;;;7373171;19;20058;-77
2023/05/11 10:50:07;;;;;;;6.88;3.88;;;;;;;;;;7373670;19;20066;-77
2023/05/11 10:52:48;;;;;;;6.88;3.35;;;;;;;;;;7394543;19;20010;-77
2023/05/11 10:55:26;;;;;;;;;;;;;;;;;;7374157;19;20017;-77
2023/05/11 10:58:13;;;;;;;7.65;3.67;;;;;;;;;;7370690;19;19930;-77
2023/05/11 11:00:42;;;;;;;5.88;3.63;;;;;;;;;;7373724;19;20493;-77
2023/05/11 11:03:11;;;;;;;7.20;3.78;;;;;;;;;;7371927;19;20497;-77
2023/05/11 11:05:37;;;;;;;8.80;3.75;;;;;;;;;;7374343;19;20406;-76
2023/05/11 11:08:03;;;;;;;6.53;3.55;;;;;;;;;;7371948;19;20010;-77
2023/05/11 11:10:33;;;;;;;7.65;3.70;;;;;;;;;;7394582;19;20010;-77
2023/05/11 11:13:04;;;;;;;5.13;3.27;;;;;;;;;;7372527;19;20535;-77
2023/05/11 11:15:52;;;;;;;8.00;3.20;;;;;;;;;;7380590;19;20032;-77
2023/05/11 11:18:23;;;;;;;7.93;3.50;;;;;;;;;;7376021;19;20093;-77
2023/05/11 11:20:53;;;;;;;6.78;3.55;;;;;;;;;;7373391;19;20410;-77
2023/05/11 11:23:48;;;;;;;7.20;4.00;;;;;;;;;;7372980;19;20022;-77
2023/05/11 11:26:16;;;;;;;6.15;3.35;;;;;;;;;;7371900;19;20014;-77
2023/05/11 11:28:53;;;;;;;5.85;3.45;;;;;;;;;;7417219;19;20019;-77
2023/05/11 11:31:26;;;;;;;5.72;3.50;;;;;;;;;;7386430;19;20006;-77
2023/05/11 11:33:52;;;;;;;6.63;3.75;;;;;;;;;;7371879;19;20010;-76
2023/05/11 11:36:37;;;;;;;6.00;3.28;;;;;;;;;;7372910;19;20022;-77
2023/05/11 11:39:04;;;;;;;5.88;3.30;;;;;;;;;;7391616;19;20006;-76
2023/05/11 11:41:31;;;;;;;8.30;4.32;;;;;;;;;;7398468;19;20072;-77
2023/05/11 11:43:57;;;;;;;6.40;3.97;;;;;;;;;;7394088;19;20452;-77
2023/05/11 11:46:28;;;;;;;6.78;3.97;;;;;;;;;;7411851;19;20002;-77
2023/05/11 11:49:06;;;;;;;6.78;4.28;;;;;;;;;;7380260;19;20017;-73
2023/05/11 11:51:33;;;;;;;8.65;4.28;;;;;;;;;;7374884;19;20007;-73
2023/05/11 11:53:58;;;;;;;8.50;4.10;;;;;;;;;;7372088;19;20011;-73
2023/05/11 11:56:23;;;;;;;8.02;3.90;;;;;;;;;;7371793;19;20045;-73
2023/05/11 11:58:59;;;;;;;6.93;3.67;;;;;;;;;;7369688;19;20024;-74
2023/05/11 12:01:27;;;;;;;6.93;4.32;;;;;;;;;;7391880;19;20235;-75
2023/05/11 12:04:16;;;;;;;7.50;4.30;;;;;;;;;;7371188;19;20408;-60
2023/05/11 12:06:46;;;;;;;9.20;4.53;;;;;;;;;;7369913;19;20065;-60
2023/05/11 12:09:17;;;;;;;7.22;4.20;;;;;;;;;;7371772;19;20089;-61
2023/05/11 12:11:45;;;;;;;7.57;4.40;;;;;;;;;;7371610;19;20242;-60
2023/05/11 12:14:11;;;;;;;6.82;4.32;;;;;;;;;;7369638;19;20011;-61
2023/05/11 12:16:37;;;;;;;8.00;4.38;;;;;;;;;;7390044;19;20010;-63
2023/05/11 12:19:03;;;;;;;7.30;4.15;;;;;;;;;;7370457;19;20003;-61
2023/05/11 12:21:33;;;;;;;9.27;4.85;;;;;;;;;;7373107;19;20022;-60
2023/05/11 12:24:03;;;;;;;6.60;4.28;;;;;;;;;;7370646;19;20003;-62
2023/05/11 12:26:30;;;;;;;7.47;4.53;;;;;;;;;;7370217;19;20077;-58
2023/05/11 12:29:12;;;;;;;8.43;4.20;;;;;;;;;;7370064;19;20003;-59
2023/05/11 12:31:39;;;;;;;6.65;4.50;;;;;;;;;;7392811;19;20006;-59
2023/05/11 12:34:05;;;;;;;6.82;4.18;;;;;;;;;;7369274;19;20009;-64
2023/05/11 12:36:33;;;;;;;8.25;4.13;;;;;;;;;;7369253;19;20019;-63
2023/05/11 12:38:59;;;;;;;6.97;3.83;;;;;;;;;;7368912;19;20014;-59
2023/05/11 12:41:24;;;;;;;8.05;3.80;;;;;;;;;;7370750;19;20027;-61
2023/05/11 12:43:51;;;;;;;13.10;5.00;;;;;;;;;;7370478;19;20349;-62
2023/05/11 12:46:17;;;;;;;8.18;3.85;;;;;;;;;;7390769;19;20009;-73
2023/05/11 12:48:44;;;;;;;7.32;3.92;;;;;;;;;;7369757;19;20226;-73
2023/05/11 12:51:10;;;;;;;5.75;3.58;;;;;;;;;;7369936;19;20002;-73
2023/05/11 12:53:36;;;;;;;7.65;3.50;;;;;;;;;;7370996;19;20018;-75
2023/05/11 12:56:03;;;;;;;6.90;4.07;;;;;;;;;;7374679;19;20026;-74
2023/05/11 12:58:38;;;;;;;5.93;3.03;;;;;;;;;;7389921;19;20006;-74
2023/05/11 13:01:05;;;;;;;6.20;3.10;;;;;;;;;;7368776;19;20011;-77
2023/05/11 13:03:35;;;;;;;4.88;2.97;;;;;;;;;;7369978;19;20009;-75
2023/05/11 13:06:07;;;;;;;5.50;3.10;;;;;;;;;;7374182;19;20002;-75
2023/05/11 13:08:34;;;;;;;5.07;2.90;;;;;;;;;;7369240;19;20007;-72
2023/05/11 13:11:35;;;;;;;5.30;3.08;;;;;;;;;;7382636;19;19998;-78
2023/05/11 13:14:14;;;;;;;6.70;3.33;;;;;;;;;;7375024;19;20014;-77
2023/05/11 13:16:39;;;;;;;7.25;3.97;;;;;;;;;;7394861;19;20070;-78
2023/05/11 13:19:09;;;;;;;6.40;4.10;;;;;;;;;;7369310;19;20010;-77
2023/05/11 13:21:34;;;;;;;7.18;4.30;;;;;;;;;;7367770;19;20014;-73
2023/05/11 13:24:02;;;;;;;6.68;4.43;;;;;;;;;;7368421;19;20006;-79
2023/05/11 13:26:31;;;;;;;5.90;4.10;;;;;;;;;;7371717;19;20469;-74
2023/05/11 13:28:56;;;;;;;5.88;3.75;;;;;;;;;;7380161;19;20374;-75
2023/05/11 13:31:22;;;;;;;5.85;2.97;;;;;;;;;;7413742;19;20029;-78
2023/05/11 13:33:51;;;;;;;6.63;2.80;;;;;;;;;;7391245;19;20024;-74
2023/05/11 13:36:17;;;;;;;4.50;2.70;;;;;;;;;;7377949;19;20014;-78
2023/05/11 13:38:42;;;;;;;4.85;2.80;;;;;;;;;;7375544;19;20006;-77
2023/05/11 13:41:08;;;;;;;5.55;3.20;;;;;;;;;;7384183;19;20093;-79
2023/05/11 13:43:34;;;;;;;5.95;3.40;;;;;;;;;;7407266;19;20019;-71
2023/05/11 13:46:00;;;;;;;7.22;3.53;;;;;;;;;;7375878;19;20006;-70
2023/05/11 13:48:25;;;;;;;8.68;3.60;;;;;;;;;;7375262;19;20022;-70
2023/05/11 13:50:50;;;;;;;5.85;3.28;;;;;;;;;;7375621;19;20017;-70
2023/05/11 13:53:16;;;;;;;9.68;2.30;;;;;;;;;;7376599;19;20006;-70
2023/05/11 13:55:41;;;;;;;4.15;2.55;;;;;;;;;;7396809;19;20415;-71
2023/05/11 13:58:08;;;;;;;3.50;2.28;;;;;;;;;;7372964;19;20367;-71
2023/05/11 14:00:33;;;;;;;3.55;2.13;;;;;;;;;;7375451;19;20006;-70
2023/05/11 14:02:59;;;;;;;3.97;2.20;;;;;;;;;;7374468;19;20014;-70
2023/05/11 14:05:25;;;;;;;3.15;2.10;;;;;;;;;;7376139;19;20017;-70
2023/05/11 14:07:50;;;;;;;3.85;2.20;;;;;;;;;;7374039;19;20009;-73
2023/05/11 14:10:16;;;;;;;4.25;2.50;;;;;;;;;;7396891;19;20006;-73
2023/05/11 14:12:41;;;;;;;2.67;1.88;;;;;;;;;;7375819;19;20006;-72
2023/05/11 14:15:07;;;;;;;3.22;2.00;;;;;;;;;;7373050;19;20007;-75
2023/05/11 14:17:33;;;;;;;4.50;2.33;;;;;;;;;;7373116;19;20536;-74
2023/05/11 14:19:58;;;;;;;2.33;1.70;;;;;;;;;;7375678;19;20003;-72
2023/05/11 14:22:23;;;;;;;3.13;1.85;;;;;;;;;;7394594;19;20510;-72
2023/05/11 14:24:49;;;;;;;3.53;2.15;;;;;;;;;;7374183;19;20017;-73
2023/05/11 14:27:14;;;;;;;4.55;2.13;;;;;;;;;;7372737;19;20013;-74
2023/05/11 14:29:39;;;;;;;3.45;2.10;;;;;;;;;;7375568;19;20014;-73
2023/05/11 14:32:05;;;;;;;3.72;2.30;;;;;;;;;;7372380;19;20018;-74
2023/05/11 14:34:30;;;;;;;3.25;1.92;;;;;;;;;;7395706;19;20010;-74
2023/05/11 14:36:56;;;;;;;4.07;2.40;;;;;;;;;;7373441;19;20061;-73
2023/05/11 14:39:21;;;;;;;4.00;2.10;;;;;;;;;;7372541;19;20086;-74
2023/05/11 14:41:47;;;;;;;3.45;2.00;;;;;;;;;;7374306;19;20013;-73
2023/05/11 14:44:12;;;;;;;3.85;1.95;;;;;;;;;;7373266;19;20497;-73
2023/05/11 14:46:37;;;;;;;2.60;1.58;;;;;;;;;;7394454;19;20035;-74